createdAt,value
2017-10-31T00:00:26.453Z,22.08
2017-10-31T00:00:54.449Z,22.15
2017-10-31T00:01:22.525Z,22.15
2017-10-31T00:01:50.640Z,22.14
2017-10-31T00:02:18.485Z,22.04
2017-10-31T00:02:46.552Z,22.1
2017-10-31T00:03:14.596Z,22.07
2017-10-31T00:03:42.672Z,22.1
2017-10-31T00:04:10.798Z,22.03
2017-10-31T00:04:38.957Z,22.07
2017-10-31T00:05:07.016Z,22.03
2017-10-31T00:05:35.179Z,22.03
2017-10-31T00:06:03.325Z,22.06
2017-10-31T00:06:31.185Z,22.01
2017-10-31T00:06:59.208Z,21.97
2017-10-31T00:07:27.253Z,21.96
2017-10-31T00:07:55.402Z,21.96
2017-10-31T00:08:23.338Z,21.96
2017-10-31T00:08:51.188Z,21.99
2017-10-31T00:09:19.254Z,21.88
2017-10-31T00:09:47.423Z,21.83
2017-10-31T00:10:15.504Z,21.83
2017-10-31T00:10:43.597Z,21.85
2017-10-31T00:11:11.545Z,21.85
2017-10-31T00:11:39.596Z,21.89
2017-10-31T00:12:07.570Z,21.85
2017-10-31T00:12:35.503Z,21.91
2017-10-31T00:13:03.674Z,21.89
2017-10-31T00:13:31.747Z,21.91
2017-10-31T00:13:59.680Z,21.94
2017-10-31T00:14:27.843Z,21.91
2017-10-31T00:14:55.873Z,21.89
2017-10-31T00:15:23.926Z,21.91
2017-10-31T00:15:52.048Z,21.91
2017-10-31T00:16:19.974Z,21.99
2017-10-31T00:16:47.809Z,21.91
2017-10-31T00:17:15.946Z,21.96
2017-10-31T00:17:43.804Z,21.97
2017-10-31T00:18:11.954Z,21.99
2017-10-31T00:18:39.884Z,21.92
2017-10-31T00:19:08.047Z,21.97
2017-10-31T00:19:36.199Z,22.01
2017-10-31T00:20:04.137Z,22.06
2017-10-31T00:20:31.992Z,22.03
2017-10-31T00:21:00.140Z,22.01
2017-10-31T00:21:28.182Z,22.12
2017-10-31T00:21:56.222Z,22.04
2017-10-31T00:22:24.282Z,22.01
2017-10-31T00:22:52.333Z,22.1
2017-10-31T00:23:20.410Z,22.08
2017-10-31T00:23:48.570Z,22.08
2017-10-31T00:24:16.602Z,22.15
2017-10-31T00:24:44.650Z,22.03
2017-10-31T00:25:12.807Z,22.08
2017-10-31T00:25:40.845Z,22.14
2017-10-31T00:26:08.883Z,22.14
2017-10-31T00:26:36.910Z,22
2017-10-31T00:27:04.845Z,22.07
2017-10-31T00:27:32.797Z,22.1
2017-10-31T00:28:00.881Z,21.99
2017-10-31T00:28:28.826Z,21.99
2017-10-31T00:28:56.979Z,22
2017-10-31T00:29:25.101Z,21.99
2017-10-31T00:29:53.144Z,22
2017-10-31T00:30:21.208Z,22.01
2017-10-31T00:30:49.370Z,21.97
2017-10-31T00:31:17.358Z,22.06
2017-10-31T00:31:45.541Z,21.96
2017-10-31T00:32:13.711Z,22.03
2017-10-31T00:32:41.892Z,21.91
2017-10-31T00:33:09.932Z,22
2017-10-31T00:33:38.093Z,21.91
2017-10-31T00:34:06.250Z,22
2017-10-31T00:34:34.428Z,22.01
2017-10-31T00:35:02.454Z,22
2017-10-31T00:35:30.497Z,21.96
2017-10-31T00:35:58.571Z,21.97
2017-10-31T00:36:26.515Z,21.92
2017-10-31T00:36:54.626Z,21.91
2017-10-31T00:37:22.760Z,21.99
2017-10-31T00:37:50.596Z,21.88
2017-10-31T00:38:18.568Z,21.91
2017-10-31T00:38:46.511Z,21.91
2017-10-31T00:39:14.485Z,21.91
2017-10-31T00:39:42.626Z,21.84
2017-10-31T00:40:10.690Z,21.88
2017-10-31T00:40:38.618Z,21.84
2017-10-31T00:41:06.657Z,21.88
2017-10-31T00:41:34.807Z,21.84
2017-10-31T00:42:03.041Z,21.85
2017-10-31T00:42:30.997Z,21.81
2017-10-31T00:42:59.085Z,21.8
2017-10-31T00:43:27.105Z,21.89
2017-10-31T00:43:55.238Z,21.85
2017-10-31T00:44:23.267Z,21.83
2017-10-31T00:44:51.348Z,21.85
2017-10-31T00:45:19.414Z,21.92
2017-10-31T00:45:47.559Z,21.88
2017-10-31T00:46:15.699Z,21.89
2017-10-31T00:46:43.742Z,21.91
2017-10-31T00:47:11.700Z,21.91
2017-10-31T00:47:39.860Z,21.96
2017-10-31T00:48:07.979Z,21.92
2017-10-31T00:48:35.826Z,21.92
2017-10-31T00:49:03.687Z,21.97
2017-10-31T00:49:31.854Z,21.94
2017-10-31T00:49:59.829Z,21.91
2017-10-31T00:50:27.969Z,21.92
2017-10-31T00:50:55.823Z,21.94
2017-10-31T00:51:23.846Z,21.96
2017-10-31T00:51:52.012Z,21.99
2017-10-31T00:52:20.146Z,22
2017-10-31T00:52:48.303Z,21.92
2017-10-31T00:53:16.478Z,21.99
2017-10-31T00:53:44.439Z,21.99
2017-10-31T00:54:12.403Z,22
2017-10-31T00:54:40.554Z,22.03
2017-10-31T00:55:08.721Z,22.04
2017-10-31T00:55:36.852Z,22.14
2017-10-31T00:56:04.775Z,22.04
2017-10-31T00:56:32.757Z,22
2017-10-31T00:57:00.602Z,22.06
2017-10-31T00:57:28.658Z,22.07
2017-10-31T00:57:56.705Z,21.99
2017-10-31T00:58:24.584Z,22.03
2017-10-31T00:58:52.626Z,22.04
2017-10-31T00:59:20.675Z,22.14
2017-10-31T00:59:48.633Z,22.15
2017-10-31T01:00:16.557Z,22.18
2017-10-31T01:00:44.510Z,22.15
2017-10-31T01:01:12.679Z,22.1
2017-10-31T01:01:40.688Z,22.16
2017-10-31T01:02:08.704Z,22.18
2017-10-31T01:02:36.739Z,22.19
2017-10-31T01:03:04.769Z,22.3
2017-10-31T01:03:32.712Z,22.21
2017-10-31T01:04:00.607Z,22.3
2017-10-31T01:04:28.773Z,22.28
2017-10-31T01:04:56.906Z,22.31
2017-10-31T01:05:24.847Z,22.31
2017-10-31T01:05:53.002Z,22.34
2017-10-31T01:06:20.958Z,22.3
2017-10-31T01:06:49.111Z,22.31
2017-10-31T01:07:17.167Z,22.28
2017-10-31T01:07:45.420Z,22.28
2017-10-31T01:08:13.590Z,22.34
2017-10-31T01:08:41.564Z,22.36
2017-10-31T01:09:09.615Z,22.31
2017-10-31T01:09:37.558Z,22.43
2017-10-31T01:10:05.698Z,22.38
2017-10-31T01:10:33.849Z,22.38
2017-10-31T01:11:01.994Z,22.4
2017-10-31T01:11:30.040Z,22.4
2017-10-31T01:11:58.103Z,22.38
2017-10-31T01:12:26.048Z,22.41
2017-10-31T01:12:53.924Z,22.43
2017-10-31T01:13:22.065Z,22.43
2017-10-31T01:13:50.210Z,22.41
2017-10-31T01:14:18.253Z,22.37
2017-10-31T01:14:46.289Z,22.37
2017-10-31T01:15:14.243Z,22.41
2017-10-31T01:15:42.417Z,22.36
2017-10-31T01:16:10.263Z,22.34
2017-10-31T01:16:38.208Z,22.41
2017-10-31T01:17:06.134Z,22.41
2017-10-31T01:17:34.295Z,22.47
2017-10-31T01:18:02.452Z,22.41
2017-10-31T01:18:30.412Z,22.38
2017-10-31T01:18:58.472Z,22.4
2017-10-31T01:19:26.404Z,22.49
2017-10-31T01:19:54.450Z,22.43
2017-10-31T01:20:22.437Z,22.47
2017-10-31T01:20:50.628Z,22.52
2017-10-31T01:21:18.676Z,22.55
2017-10-31T01:21:46.818Z,22.44
2017-10-31T01:22:14.672Z,22.47
2017-10-31T01:22:42.533Z,22.49
2017-10-31T01:23:10.555Z,22.38
2017-10-31T01:23:38.502Z,22.38
2017-10-31T01:24:06.663Z,22.41
2017-10-31T01:24:34.819Z,22.37
2017-10-31T01:25:02.795Z,22.44
2017-10-31T01:25:30.979Z,22.43
2017-10-31T01:25:59.105Z,22.38
2017-10-31T01:26:27.249Z,22.41
2017-10-31T01:26:55.201Z,22.44
2017-10-31T01:27:23.266Z,22.41
2017-10-31T01:27:51.335Z,22.4
2017-10-31T01:28:19.383Z,22.38
2017-10-31T01:28:47.532Z,22.44
2017-10-31T01:29:15.700Z,22.38
2017-10-31T01:29:43.842Z,22.38
2017-10-31T01:30:12.002Z,22.38
2017-10-31T01:30:40.123Z,22.31
2017-10-31T01:31:08.187Z,22.3
2017-10-31T01:31:36.335Z,22.33
2017-10-31T01:32:04.302Z,22.31
2017-10-31T01:32:32.463Z,22.23
2017-10-31T01:33:00.615Z,22.3
2017-10-31T01:33:28.684Z,22.18
2017-10-31T01:33:56.617Z,22.22
2017-10-31T01:34:24.548Z,22.25
2017-10-31T01:34:52.661Z,22.31
2017-10-31T01:35:20.744Z,22.3
2017-10-31T01:35:48.772Z,22.25
2017-10-31T01:36:16.907Z,22.33
2017-10-31T01:36:45.027Z,22.18
2017-10-31T01:37:12.901Z,22.3
2017-10-31T01:37:40.929Z,22.3
2017-10-31T01:38:09.742Z,22.34
2017-10-31T01:38:37.569Z,22.3
2017-10-31T01:39:05.728Z,22.31
2017-10-31T01:39:33.870Z,22.26
2017-10-31T01:40:01.925Z,22.34
2017-10-31T01:40:29.995Z,22.41
2017-10-31T01:40:58.141Z,22.43
2017-10-31T01:41:26.000Z,22.4
2017-10-31T01:41:54.071Z,22.34
2017-10-31T01:42:22.117Z,22.38
2017-10-31T01:42:50.158Z,22.4
2017-10-31T01:43:17.994Z,22.37
2017-10-31T01:43:46.042Z,22.36
2017-10-31T01:44:14.190Z,22.34
2017-10-31T01:44:42.272Z,22.26
2017-10-31T01:45:10.128Z,22.19
2017-10-31T01:45:38.250Z,22.14
2017-10-31T01:46:06.204Z,22.22
2017-10-31T01:46:34.129Z,22.1
2017-10-31T01:47:02.160Z,22.12
2017-10-31T01:47:30.290Z,22.14
2017-10-31T01:47:58.252Z,21.99
2017-10-31T01:48:26.398Z,22.06
2017-10-31T01:48:54.144Z,22.01
2017-10-31T01:49:22.100Z,21.99
2017-10-31T01:49:50.043Z,21.99
2017-10-31T01:50:18.013Z,22
2017-10-31T01:50:45.962Z,21.99
2017-10-31T01:51:13.909Z,22.07
2017-10-31T01:51:41.933Z,22.1
2017-10-31T01:52:09.997Z,21.97
2017-10-31T01:52:38.130Z,21.99
2017-10-31T01:53:05.956Z,22.06
2017-10-31T01:53:33.971Z,22.01
2017-10-31T01:54:02.130Z,22.01
2017-10-31T01:54:30.259Z,22
2017-10-31T01:54:58.304Z,22.03
2017-10-31T01:55:26.304Z,21.96
2017-10-31T01:55:54.239Z,21.96
2017-10-31T01:56:22.287Z,21.97
2017-10-31T01:56:50.414Z,21.99
2017-10-31T01:57:18.549Z,21.96
2017-10-31T01:57:46.514Z,22
2017-10-31T01:58:14.568Z,21.94
2017-10-31T01:58:42.613Z,21.99
2017-10-31T01:59:10.601Z,21.94
2017-10-31T01:59:38.557Z,21.92
2017-10-31T02:00:06.635Z,22
2017-10-31T02:00:34.770Z,22
2017-10-31T02:01:02.730Z,21.92
2017-10-31T02:01:30.861Z,21.99
2017-10-31T02:01:58.693Z,21.96
2017-10-31T02:02:26.833Z,21.92
2017-10-31T02:02:54.962Z,21.94
2017-10-31T02:03:23.018Z,21.99
2017-10-31T02:03:51.012Z,21.92
2017-10-31T02:04:19.156Z,21.99
2017-10-31T02:04:47.208Z,21.94
2017-10-31T02:05:15.357Z,22.01
2017-10-31T02:05:43.304Z,21.91
2017-10-31T02:06:11.451Z,22.03
2017-10-31T02:06:39.507Z,22.01
2017-10-31T02:07:07.644Z,22.06
2017-10-31T02:07:35.812Z,22.04
2017-10-31T02:08:03.756Z,22
2017-10-31T02:08:31.894Z,22
2017-10-31T02:08:59.967Z,22
2017-10-31T02:09:28.024Z,21.99
2017-10-31T02:09:56.197Z,21.97
2017-10-31T02:10:23.937Z,21.96
2017-10-31T02:10:52.067Z,21.89
2017-10-31T02:11:20.030Z,21.94
2017-10-31T02:11:47.957Z,21.99
2017-10-31T02:12:16.119Z,21.91
2017-10-31T02:12:44.331Z,21.92
2017-10-31T02:13:12.187Z,21.94
2017-10-31T02:13:40.335Z,21.91
2017-10-31T02:14:08.507Z,21.92
2017-10-31T02:14:36.435Z,21.88
2017-10-31T02:15:04.364Z,21.91
2017-10-31T02:15:32.397Z,21.92
2017-10-31T02:16:00.529Z,21.91
2017-10-31T02:16:28.590Z,21.94
2017-10-31T02:16:56.438Z,21.92
2017-10-31T02:17:24.604Z,21.99
2017-10-31T02:17:52.625Z,22.03
2017-10-31T02:18:20.680Z,22.01
2017-10-31T02:18:48.812Z,22.01
2017-10-31T02:19:16.940Z,22.12
2017-10-31T02:19:44.895Z,22.08
2017-10-31T02:20:13.049Z,22.07
2017-10-31T02:20:41.010Z,22
2017-10-31T02:21:09.096Z,22.14
2017-10-31T02:21:37.233Z,22.03
2017-10-31T02:22:05.303Z,22.1
2017-10-31T02:22:33.455Z,22.12
2017-10-31T02:23:01.439Z,22.12
2017-10-31T02:23:29.460Z,22.12
2017-10-31T02:23:57.520Z,22.15
2017-10-31T02:24:25.359Z,22.22
2017-10-31T02:24:53.524Z,22.18
2017-10-31T02:25:21.692Z,22.19
2017-10-31T02:25:49.721Z,22.23
2017-10-31T02:26:17.771Z,22.25
2017-10-31T02:26:45.915Z,22.31
2017-10-31T02:27:14.060Z,22.25
2017-10-31T02:27:42.196Z,22.37
2017-10-31T02:28:10.364Z,22.31
2017-10-31T02:28:38.427Z,22.33
2017-10-31T02:29:06.569Z,22.37
2017-10-31T02:29:34.622Z,22.33
2017-10-31T02:30:02.566Z,22.36
2017-10-31T02:30:30.507Z,22.41
2017-10-31T02:30:58.546Z,22.4
2017-10-31T02:31:26.589Z,22.38
2017-10-31T02:31:54.601Z,22.34
2017-10-31T02:32:22.577Z,22.44
2017-10-31T02:32:50.629Z,22.37
2017-10-31T02:33:18.793Z,22.44
2017-10-31T02:33:46.748Z,22.37
2017-10-31T02:34:14.785Z,22.38
2017-10-31T02:34:42.821Z,22.46
2017-10-31T02:35:10.755Z,22.46
2017-10-31T02:35:38.681Z,22.47
2017-10-31T02:36:06.722Z,22.47
2017-10-31T02:36:34.683Z,22.52
2017-10-31T02:37:02.823Z,22.51
2017-10-31T02:37:30.806Z,22.44
2017-10-31T02:37:58.740Z,22.49
2017-10-31T02:38:26.888Z,22.51
2017-10-31T02:38:54.765Z,22.52
2017-10-31T02:39:22.909Z,22.53
2017-10-31T02:39:51.077Z,22.49
2017-10-31T02:40:19.189Z,22.52
2017-10-31T02:40:47.279Z,22.51
2017-10-31T02:41:15.320Z,22.44
2017-10-31T02:41:43.360Z,22.56
2017-10-31T02:42:11.298Z,22.49
2017-10-31T02:42:39.354Z,22.49
2017-10-31T02:43:07.504Z,22.47
2017-10-31T02:43:35.667Z,22.53
2017-10-31T02:44:03.594Z,22.52
2017-10-31T02:44:31.738Z,22.47
2017-10-31T02:44:59.800Z,22.43
2017-10-31T02:45:27.805Z,22.52
2017-10-31T02:45:55.853Z,22.52
2017-10-31T02:46:24.003Z,22.43
2017-10-31T02:46:52.117Z,22.55
2017-10-31T02:47:20.154Z,22.52
2017-10-31T02:47:48.190Z,22.53
2017-10-31T02:48:16.072Z,22.58
2017-10-31T02:48:44.221Z,22.59
2017-10-31T02:49:12.380Z,22.58
2017-10-31T02:49:40.383Z,22.62
2017-10-31T02:50:08.328Z,22.53
2017-10-31T02:50:36.498Z,22.55
2017-10-31T02:51:04.632Z,22.47
2017-10-31T02:51:32.807Z,22.53
2017-10-31T02:52:00.954Z,22.52
2017-10-31T02:52:28.993Z,22.4
2017-10-31T02:52:56.829Z,22.47
2017-10-31T02:53:24.960Z,22.38
2017-10-31T02:53:53.003Z,22.34
2017-10-31T02:54:21.163Z,22.31
2017-10-31T02:54:49.018Z,22.3
2017-10-31T02:55:16.964Z,22.15
2017-10-31T02:55:45.122Z,22.19
2017-10-31T02:56:13.043Z,22.15
2017-10-31T02:56:41.176Z,22.12
2017-10-31T02:57:09.223Z,22.12
2017-10-31T02:57:37.274Z,22
2017-10-31T02:58:05.433Z,21.96
2017-10-31T02:58:33.495Z,22.03
2017-10-31T02:59:01.543Z,21.94
2017-10-31T02:59:29.656Z,21.91
2017-10-31T02:59:57.717Z,21.99
2017-10-31T03:00:25.771Z,21.99
2017-10-31T03:00:53.845Z,21.91
2017-10-31T03:01:21.904Z,21.91
2017-10-31T03:01:49.933Z,21.85
2017-10-31T03:02:17.764Z,21.84
2017-10-31T03:02:45.820Z,21.85
2017-10-31T03:03:13.882Z,21.8
2017-10-31T03:03:42.009Z,21.81
2017-10-31T03:04:10.076Z,21.75
2017-10-31T03:04:38.260Z,21.8
2017-10-31T03:05:06.339Z,21.66
2017-10-31T03:05:34.385Z,21.69
2017-10-31T03:06:02.432Z,21.68
2017-10-31T03:06:30.566Z,21.63
2017-10-31T03:06:58.515Z,21.77
2017-10-31T03:07:26.572Z,21.77
2017-10-31T03:07:54.738Z,21.66
2017-10-31T03:08:22.865Z,21.7
2017-10-31T03:08:50.927Z,21.8
2017-10-31T03:09:18.974Z,21.83
2017-10-31T03:09:46.930Z,21.74
2017-10-31T03:10:14.756Z,21.77
2017-10-31T03:10:42.783Z,21.81
2017-10-31T03:11:10.793Z,21.8
2017-10-31T03:11:38.727Z,21.81
2017-10-31T03:12:06.858Z,21.78
2017-10-31T03:12:35.017Z,21.83
2017-10-31T03:13:03.122Z,21.8
2017-10-31T03:13:31.136Z,21.8
2017-10-31T03:13:59.129Z,21.83
2017-10-31T03:14:27.257Z,21.81
2017-10-31T03:14:55.427Z,21.81
2017-10-31T03:15:23.570Z,21.78
2017-10-31T03:15:51.537Z,21.8
2017-10-31T03:16:19.474Z,21.8
2017-10-31T03:16:47.504Z,21.83
2017-10-31T03:17:15.569Z,21.85
2017-10-31T03:17:43.765Z,21.83
2017-10-31T03:18:11.837Z,21.89
2017-10-31T03:18:39.801Z,21.8
2017-10-31T03:19:07.927Z,21.89
2017-10-31T03:19:35.860Z,21.88
2017-10-31T03:20:03.886Z,21.85
2017-10-31T03:20:31.928Z,21.85
2017-10-31T03:21:00.091Z,21.89
2017-10-31T03:21:28.023Z,21.81
2017-10-31T03:21:56.155Z,21.85
2017-10-31T03:22:24.108Z,21.78
2017-10-31T03:22:52.147Z,21.81
2017-10-31T03:23:20.301Z,21.78
2017-10-31T03:23:48.327Z,21.84
2017-10-31T03:24:16.485Z,21.78
2017-10-31T03:24:44.471Z,21.77
2017-10-31T03:25:12.611Z,21.7
2017-10-31T03:25:40.745Z,21.78
2017-10-31T03:26:08.707Z,21.83
2017-10-31T03:26:36.768Z,21.8
2017-10-31T03:27:04.860Z,21.85
2017-10-31T03:27:32.790Z,21.8
2017-10-31T03:28:00.963Z,21.81
2017-10-31T03:28:29.128Z,21.88
2017-10-31T03:28:57.194Z,21.83
2017-10-31T03:29:25.144Z,21.92
2017-10-31T03:29:53.097Z,21.88
2017-10-31T03:30:21.152Z,21.83
2017-10-31T03:30:49.216Z,21.84
2017-10-31T03:31:17.280Z,21.85
2017-10-31T03:31:45.334Z,21.83
2017-10-31T03:32:13.348Z,21.88
2017-10-31T03:32:41.295Z,21.77
2017-10-31T03:33:09.366Z,21.8
2017-10-31T03:33:37.401Z,21.81
2017-10-31T03:34:05.419Z,21.74
2017-10-31T03:34:33.465Z,21.77
2017-10-31T03:35:01.546Z,21.85
2017-10-31T03:35:29.496Z,21.8
2017-10-31T03:35:57.523Z,21.81
2017-10-31T03:36:25.467Z,21.88
2017-10-31T03:36:53.625Z,21.89
2017-10-31T03:37:21.657Z,21.78
2017-10-31T03:37:49.617Z,21.77
2017-10-31T03:38:17.786Z,21.89
2017-10-31T03:38:45.854Z,21.91
2017-10-31T03:39:13.931Z,21.91
2017-10-31T03:39:42.072Z,21.94
2017-10-31T03:40:10.116Z,21.91
2017-10-31T03:40:38.041Z,21.92
2017-10-31T03:41:06.085Z,21.88
2017-10-31T03:41:34.235Z,21.88
2017-10-31T03:42:02.159Z,21.85
2017-10-31T03:42:30.233Z,21.92
2017-10-31T03:42:58.372Z,21.92
2017-10-31T03:43:26.384Z,21.91
2017-10-31T03:43:54.561Z,21.96
2017-10-31T03:44:22.589Z,21.91
2017-10-31T03:44:50.627Z,21.97
2017-10-31T03:45:18.556Z,21.99
2017-10-31T03:45:46.608Z,21.91
2017-10-31T03:46:14.861Z,21.92
2017-10-31T03:46:42.797Z,22.01
2017-10-31T03:47:10.844Z,22.04
2017-10-31T03:47:38.983Z,22.04
2017-10-31T03:48:07.120Z,21.97
2017-10-31T03:48:35.057Z,21.94
2017-10-31T03:49:03.245Z,21.99
2017-10-31T03:49:31.197Z,22.04
2017-10-31T03:49:59.276Z,21.97
2017-10-31T03:50:27.287Z,22
2017-10-31T03:50:55.435Z,22.03
2017-10-31T03:51:23.512Z,22.01
2017-10-31T03:51:51.665Z,22.08
2017-10-31T03:52:19.621Z,22.08
2017-10-31T03:52:47.649Z,22.1
2017-10-31T03:53:15.802Z,22.01
2017-10-31T03:53:43.871Z,22.15
2017-10-31T03:54:11.946Z,22.03
2017-10-31T03:54:39.900Z,22.03
2017-10-31T03:55:07.939Z,22.01
2017-10-31T03:55:35.949Z,22.01
2017-10-31T03:56:03.892Z,22.15
2017-10-31T03:56:31.834Z,22.12
2017-10-31T03:56:59.858Z,22.03
2017-10-31T03:57:27.986Z,22.14
2017-10-31T03:57:55.939Z,22.06
2017-10-31T03:58:23.997Z,22.03
2017-10-31T03:58:52.062Z,22.08
2017-10-31T03:59:20.092Z,22.04
2017-10-31T03:59:48.137Z,22.04
2017-10-31T04:00:16.291Z,22.04
2017-10-31T04:00:44.344Z,22
2017-10-31T04:01:12.519Z,22.1
2017-10-31T04:01:40.580Z,21.96
2017-10-31T04:02:08.640Z,22.14
2017-10-31T04:02:36.687Z,22.12
2017-10-31T04:03:04.737Z,22.1
2017-10-31T04:03:32.876Z,22.1
2017-10-31T04:04:01.014Z,22.14
2017-10-31T04:04:28.979Z,22.12
2017-10-31T04:04:57.118Z,22.08
2017-10-31T04:05:25.260Z,22.21
2017-10-31T04:05:53.338Z,22.19
2017-10-31T04:06:21.386Z,22.15
2017-10-31T04:06:49.322Z,22.23
2017-10-31T04:07:17.390Z,22.18
2017-10-31T04:07:45.422Z,22.23
2017-10-31T04:08:13.263Z,22.25
2017-10-31T04:08:41.235Z,22.18
2017-10-31T04:09:09.376Z,22.31
2017-10-31T04:09:37.403Z,22.21
2017-10-31T04:10:05.522Z,22.21
2017-10-31T04:10:33.536Z,22.25
2017-10-31T04:11:01.500Z,22.21
2017-10-31T04:11:29.660Z,22.28
2017-10-31T04:11:57.597Z,22.28
2017-10-31T04:12:25.732Z,22.31
2017-10-31T04:12:53.602Z,22.3
2017-10-31T04:13:21.763Z,22.28
2017-10-31T04:13:49.816Z,22.31
2017-10-31T04:14:17.972Z,22.34
2017-10-31T04:14:45.909Z,22.36
2017-10-31T04:15:14.046Z,22.31
2017-10-31T04:15:42.104Z,22.26
2017-10-31T04:16:10.261Z,22.33
2017-10-31T04:16:38.401Z,22.31
2017-10-31T04:17:06.552Z,22.28
2017-10-31T04:17:34.504Z,22.31
2017-10-31T04:18:02.651Z,22.34
2017-10-31T04:18:30.794Z,22.33
2017-10-31T04:18:58.863Z,22.3
2017-10-31T04:19:26.997Z,22.28
2017-10-31T04:19:55.082Z,22.26
2017-10-31T04:20:23.139Z,22.37
2017-10-31T04:20:51.165Z,22.33
2017-10-31T04:21:19.126Z,22.26
2017-10-31T04:21:47.310Z,22.33
2017-10-31T04:22:15.294Z,22.33
2017-10-31T04:22:43.358Z,22.3
2017-10-31T04:23:11.308Z,22.33
2017-10-31T04:23:39.264Z,22.38
2017-10-31T04:24:07.292Z,22.34
2017-10-31T04:24:35.239Z,22.31
2017-10-31T04:25:03.292Z,22.33
2017-10-31T04:25:31.245Z,22.33
2017-10-31T04:25:59.298Z,22.31
2017-10-31T04:26:27.540Z,22.34
2017-10-31T04:26:55.596Z,22.3
2017-10-31T04:27:23.670Z,22.34
2017-10-31T04:27:51.826Z,22.25
2017-10-31T04:28:19.872Z,22.31
2017-10-31T04:28:47.909Z,22.28
2017-10-31T04:29:16.081Z,22.31
2017-10-31T04:29:44.127Z,22.33
2017-10-31T04:30:12.284Z,22.31
2017-10-31T04:30:40.335Z,22.31
2017-10-31T04:31:08.373Z,22.34
2017-10-31T04:31:36.508Z,22.31
2017-10-31T04:32:04.572Z,22.31
2017-10-31T04:32:32.748Z,22.3
2017-10-31T04:33:00.680Z,22.34
2017-10-31T04:33:28.713Z,22.3
2017-10-31T04:33:56.682Z,22.31
2017-10-31T04:34:24.832Z,22.3
2017-10-31T04:34:52.978Z,22.37
2017-10-31T04:35:21.129Z,22.34
2017-10-31T04:35:49.274Z,22.3
2017-10-31T04:36:17.437Z,22.31
2017-10-31T04:36:45.498Z,22.37
2017-10-31T04:37:13.655Z,22.31
2017-10-31T04:37:41.741Z,22.33
2017-10-31T04:38:09.818Z,22.25
2017-10-31T04:38:38.024Z,22.22
2017-10-31T04:39:06.041Z,22.18
2017-10-31T04:39:34.221Z,22.19
2017-10-31T04:40:02.164Z,22.19
2017-10-31T04:40:30.215Z,22.19
2017-10-31T04:40:58.194Z,22.19
2017-10-31T04:41:26.250Z,22.21
2017-10-31T04:41:54.383Z,22.1
2017-10-31T04:42:22.541Z,22.15
2017-10-31T04:42:50.677Z,22.04
2017-10-31T04:43:18.735Z,21.99
2017-10-31T04:43:46.685Z,22.01
2017-10-31T04:44:14.808Z,22.03
2017-10-31T04:44:42.685Z,22.06
2017-10-31T04:45:10.652Z,21.99
2017-10-31T04:45:38.597Z,22
2017-10-31T04:46:06.764Z,21.97
2017-10-31T04:46:34.697Z,21.92
2017-10-31T04:47:02.902Z,21.94
2017-10-31T04:47:31.056Z,21.88
2017-10-31T04:47:59.228Z,21.89
2017-10-31T04:48:27.157Z,21.91
2017-10-31T04:48:55.212Z,21.83
2017-10-31T04:49:23.399Z,21.84
2017-10-31T04:49:51.426Z,21.75
2017-10-31T04:50:19.472Z,21.81
2017-10-31T04:50:47.378Z,21.78
2017-10-31T04:51:15.355Z,21.81
2017-10-31T04:51:43.410Z,21.78
2017-10-31T04:52:11.352Z,21.8
2017-10-31T04:52:39.177Z,21.81
2017-10-31T04:53:07.228Z,21.77
2017-10-31T04:53:35.287Z,21.77
2017-10-31T04:54:03.341Z,21.77
2017-10-31T04:54:31.480Z,21.66
2017-10-31T04:54:59.428Z,21.66
2017-10-31T04:55:27.599Z,21.68
2017-10-31T04:55:55.529Z,21.68
2017-10-31T04:56:23.486Z,21.68
2017-10-31T04:56:51.539Z,21.66
2017-10-31T04:57:19.689Z,21.65
2017-10-31T04:57:47.633Z,21.66
2017-10-31T04:58:15.812Z,21.66
2017-10-31T04:58:43.857Z,21.65
2017-10-31T04:59:11.802Z,21.63
2017-10-31T04:59:39.768Z,21.62
2017-10-31T05:00:07.735Z,21.62
2017-10-31T05:00:35.761Z,21.59
2017-10-31T05:01:03.814Z,21.56
2017-10-31T05:01:31.859Z,21.63
2017-10-31T05:01:59.903Z,21.6
2017-10-31T05:02:27.856Z,21.72
2017-10-31T05:02:55.827Z,21.62
2017-10-31T05:03:23.991Z,21.54
2017-10-31T05:03:52.051Z,21.66
2017-10-31T05:04:20.122Z,21.62
2017-10-31T05:04:48.162Z,21.6
2017-10-31T05:05:16.329Z,21.65
2017-10-31T05:05:44.367Z,21.69
2017-10-31T05:06:12.407Z,21.68
2017-10-31T05:06:40.573Z,21.66
2017-10-31T05:07:08.613Z,21.7
2017-10-31T05:07:36.659Z,21.63
2017-10-31T05:08:04.700Z,21.63
2017-10-31T05:08:32.839Z,21.66
2017-10-31T05:09:00.882Z,21.74
2017-10-31T05:09:28.963Z,21.69
2017-10-31T05:09:57.021Z,21.65
2017-10-31T05:10:25.034Z,21.72
2017-10-31T05:10:53.173Z,21.77
2017-10-31T05:11:21.238Z,21.74
2017-10-31T05:11:49.289Z,21.66
2017-10-31T05:12:17.427Z,21.6
2017-10-31T05:12:45.467Z,21.66
2017-10-31T05:13:13.510Z,21.66
2017-10-31T05:13:41.657Z,21.65
2017-10-31T05:14:09.783Z,21.65
2017-10-31T05:14:37.943Z,21.74
2017-10-31T05:15:06.151Z,21.66
2017-10-31T05:15:34.280Z,21.65
2017-10-31T05:16:02.431Z,21.59
2017-10-31T05:16:30.362Z,21.51
2017-10-31T05:16:58.504Z,21.6
2017-10-31T05:17:26.658Z,21.56
2017-10-31T05:17:54.597Z,21.44
2017-10-31T05:18:22.617Z,21.48
2017-10-31T05:18:50.772Z,21.4
2017-10-31T05:19:18.693Z,21.35
2017-10-31T05:19:46.845Z,21.37
2017-10-31T05:20:14.866Z,21.4
2017-10-31T05:20:42.816Z,21.3
2017-10-31T05:21:10.864Z,21.22
2017-10-31T05:21:38.892Z,21.22
2017-10-31T05:22:07.014Z,21.15
2017-10-31T05:22:35.022Z,21.2
2017-10-31T05:23:02.979Z,21.17
2017-10-31T05:23:31.057Z,21.14
2017-10-31T05:23:59.213Z,21.11
2017-10-31T05:24:27.257Z,21.04
2017-10-31T05:24:55.317Z,21.01
2017-10-31T05:25:23.714Z,20.98
2017-10-31T05:25:51.831Z,20.93
2017-10-31T05:26:19.877Z,20.95
2017-10-31T05:26:47.937Z,20.86
2017-10-31T05:27:16.062Z,20.88
2017-10-31T05:27:43.887Z,20.9
2017-10-31T05:28:11.928Z,20.73
2017-10-31T05:28:40.104Z,20.77
2017-10-31T05:29:08.075Z,20.71
2017-10-31T05:29:36.110Z,20.71
2017-10-31T05:30:04.272Z,20.6
2017-10-31T05:30:32.313Z,20.56
2017-10-31T05:31:00.476Z,20.5
2017-10-31T05:31:28.517Z,20.44
2017-10-31T05:31:56.476Z,20.5
2017-10-31T05:32:24.403Z,20.4
2017-10-31T05:32:52.592Z,20.4
2017-10-31T05:33:20.540Z,20.39
2017-10-31T05:33:48.612Z,20.39
2017-10-31T05:34:16.762Z,20.32
2017-10-31T05:34:44.808Z,20.37
2017-10-31T05:35:12.860Z,20.36
2017-10-31T05:35:40.917Z,20.44
2017-10-31T05:36:08.933Z,20.37
2017-10-31T05:36:37.073Z,20.32
2017-10-31T05:37:04.918Z,20.48
2017-10-31T05:37:32.933Z,20.29
2017-10-31T05:38:01.085Z,20.34
2017-10-31T05:38:29.227Z,20.33
2017-10-31T05:38:57.280Z,20.34
2017-10-31T05:39:25.212Z,20.4
2017-10-31T05:39:53.365Z,20.3
2017-10-31T05:40:21.536Z,20.27
2017-10-31T05:40:49.482Z,20.4
2017-10-31T05:41:17.540Z,20.46
2017-10-31T05:41:45.594Z,20.4
2017-10-31T05:42:13.652Z,20.49
2017-10-31T05:42:41.614Z,20.48
2017-10-31T05:43:09.792Z,20.44
2017-10-31T05:43:37.734Z,20.4
2017-10-31T05:44:05.774Z,20.44
2017-10-31T05:44:33.715Z,20.37
2017-10-31T05:45:01.697Z,20.37
2017-10-31T05:45:29.772Z,20.44
2017-10-31T05:45:57.914Z,20.4
2017-10-31T05:46:25.732Z,20.4
2017-10-31T05:46:53.692Z,20.3
2017-10-31T05:47:21.848Z,20.36
2017-10-31T05:47:49.983Z,20.39
2017-10-31T05:48:18.146Z,20.36
2017-10-31T05:48:46.293Z,20.33
2017-10-31T05:49:14.319Z,20.32
2017-10-31T05:49:42.332Z,20.18
2017-10-31T05:50:10.395Z,20.22
2017-10-31T05:50:38.436Z,20.21
2017-10-31T05:51:06.403Z,20.29
2017-10-31T05:51:34.232Z,20.21
2017-10-31T05:52:02.387Z,20.22
2017-10-31T05:52:30.553Z,20.26
2017-10-31T05:52:58.568Z,20.27
2017-10-31T05:53:26.703Z,20.18
2017-10-31T05:53:54.732Z,20.18
2017-10-31T05:54:22.867Z,20.21
2017-10-31T05:54:51.004Z,20.26
2017-10-31T05:55:18.932Z,20.24
2017-10-31T05:55:47.001Z,20.26
2017-10-31T05:56:15.181Z,20.24
2017-10-31T05:56:43.235Z,20.19
2017-10-31T05:57:12.148Z,20.24
2017-10-31T05:57:40.095Z,20.18
2017-10-31T05:58:08.224Z,20.17
2017-10-31T05:58:36.280Z,20.17
2017-10-31T05:59:04.340Z,20.34
2017-10-31T05:59:32.508Z,20.29
2017-10-31T06:00:00.486Z,20.34
2017-10-31T06:00:28.606Z,20.36
2017-10-31T06:00:56.564Z,20.24
2017-10-31T06:01:24.401Z,20.29
2017-10-31T06:01:52.438Z,20.26
2017-10-31T06:02:20.580Z,20.39
2017-10-31T06:02:48.742Z,20.36
2017-10-31T06:03:16.916Z,20.39
2017-10-31T06:03:44.870Z,20.29